Midland, MI

6:46 PM EDT on August 30, 2015 (GMT -0400)
Midland Northwest | | Change Station
CLOSE
Current Station
Personal Weather Station
Location: Midland, MI
Elevation: 636 ft
Nearby Weather Stations

Elev 636 ft 43.65 °N, 84.28 °W | Updated 8 seconds ago

Mostly Cloudy
Mostly Cloudy
76.8 °F
Feels Like 78 °F
N
0.0
Wind Variable Wind from SW
Gusts 0.0 mph

Today
High -- | Low -- °F
--% Chance of Precip.
Yesterday
High -- | Low -- °F
Precip. -- in
6:58 AM 8:16 PM
Full, 98% visible
Pressure 30.00 in
Visibility 7.0 miles
Clouds Mostly Cloudy 2200 ft
Heat Index 78 °F
Dew Point 70 °F
Humidity 79%
Rainfall 0.00 in
Snow Depth Not available.
UV 1.0 out of 12
Pollen 10.20 out of 12
Air Quality Not available.
Flu Activity Not available.
METAR KIKW 302233Z AUTO 24003KT 7SM BKN022 25/19 A3000 RMK AO2 T02460188
Pressure 30.00 in
Visibility 7.0 miles
Clouds Mostly Cloudy 2200 ft
Heat Index 78 °F
Dew Point 70 °F
Humidity 79%
Rainfall 0.00 in
Snow Depth Not available.
UV 1.0 out of 12
Pollen 10.20 out of 12
Air Quality Not available.
Flu Activity Not available.
METAR KIKW 302233Z AUTO 24003KT 7SM BKN022 25/19 A3000 RMK AO2 T02460188

10-Day Weather Forecast

×

Almanac

Astronomy

Aug. 30, 2015 Rise Set
Actual Time
Civil Twilight
Nautical Twilight
Astronomical Twilight
Moon
Length of Visible Light
Length of Day
Tomorrow will be .
, % of the Moon is Illuminated

Today's Extremes

State Highs State Lows

Community

WunderPhotos

Upload Photos

1,851,075 photos uploaded!

WunderBlogs® & News

Nearby

Air Quality

  Air Quality AQ Index Pollutant
Not available.

Snow Depth

Station Depth Elevation

Earthquake Activity

City Distance Mag. Time & Date
Minimum magnitude displayed is 2.5.

Coastal Water Temperatures

Place Temperature

Stations

Nearby Weather Stations

Station Location Temp. Windchill Dew Point Humidity Wind Precip. Elev Updated Type